| Date | Time | Temp. (oF) | Dew Point (oF) | Rel. Hum. (%) | Press. (in.) | Wind Dir. | Wind Speed (mph) | Hourly Rainfall (in.) |
|
|---|---|---|---|---|---|---|---|---|---|
| 1 | 01/28 | 00:00 | 37 | 26 | 66 | 30.13 | ENE | 0 | 0.00 |
| 2 | 01/27 | 23:00 | 42 | 26 | 54 | 30.14 | SSW | 0 | 0.00 |
| 3 | 01/27 | 22:00 | 46 | 27 | 48 | 30.15 | SSW | 0 | 0.00 |
| 4 | 01/27 | 21:00 | 49 | 26 | 42 | 30.14 | SSE | 1 | 0.00 |
| 5 | 01/27 | 20:00 | 51 | 28 | 42 | 30.15 | S | 7 | 0.00 |
| 6 | 01/27 | 19:00 | 53 | 33 | 47 | 30.15 | S | 4 | 0.00 |
| 7 | 01/27 | 18:00 | 56 | 34 | 44 | 30.14 | S | 6 | 0.00 |
| 8 | 01/27 | 17:00 | 62 | 35 | 37 | 30.12 | SSE | 5 | 0.00 |
| 9 | 01/27 | 16:00 | 67 | 27 | 23 | 30.11 | WSW | 3 | 0.00 |
| 10 | 01/27 | 15:00 | 68 | 24 | 20 | 30.11 | NW | 4 | 0.00 |
| 11 | 01/27 | 14:00 | 66 | 33 | 30 | 30.13 | SSW | 5 | 0.00 |
| 12 | 01/27 | 13:00 | 61 | 34 | 37 | 30.17 | SSW | 3 | 0.00 |
| 13 | 01/27 | 12:00 | 55 | 33 | 45 | 30.21 | NW | 1 | 0.00 |
| 14 | 01/27 | 11:00 | 46 | 31 | 57 | 30.24 | SSE | 1 | 0.00 |
| 15 | 01/27 | 10:00 | 38 | 32 | 80 | 30.25 | SE | 2 | 0.00 |
| 16 | 01/27 | 09:00 | 30 | 29 | 96 | 30.26 | S | 0 | 0.00 |
| 17 | 01/27 | 08:00 | 24 | 23 | 97 | 30.25 | S | 1 | 0.00 |
| 18 | 01/27 | 07:00 | 25 | 24 | 96 | 30.23 | NNW | 0 | 0.00 |
| 19 | 01/27 | 06:00 | 24 | 22 | 93 | 30.22 | NW | 1 | 0.00 |
| 20 | 01/27 | 05:00 | 26 | 23 | 92 | 30.22 | NW | 0 | 0.00 |
| 21 | 01/27 | 04:00 | 26 | 23 | 89 | 30.21 | WSW | 0 | 0.00 |
| 22 | 01/27 | 03:00 | 28 | 24 | 88 | 30.21 | WSW | 0 | 0.00 |
| 23 | 01/27 | 02:00 | 29 | 23 | 80 | 30.21 | SW | 0 | 0.00 |
| 24 | 01/27 | 01:00 | 31 | 23 | 73 | 30.20 | SW | 0 | 0.00 |